Time;durP1;ratioP1;P1;durP2;ratioP2;P2;SDS_P1;SDS_P2;PMS_P1;PMS_P2;Temp;Humidity;BMP_temperature;BMP_pressure;BME280_temperature;BME280_humidity;BME280_pressure;Samples;Min_cycle;Max_cycle;Signal;HPM_P1;HPM_P2
2022/07/07 00:01:42;;;;;;;6.97;2.80;;;21.10;99.90;;;;;;5033329;28;20432;-51
2022/07/07 00:04:08;;;;;;;5.35;3.00;;;21.00;99.90;;;;;;5014835;28;20120;-50
2022/07/07 00:06:34;;;;;;;6.72;3.05;;;21.10;99.90;;;;;;5033176;28;20111;-50
2022/07/07 00:09:01;;;;;;;4.80;2.65;;;21.10;99.90;;;;;;5032843;28;20026;-49
2022/07/07 00:11:27;;;;;;;5.13;2.97;;;21.10;99.90;;;;;;5014204;28;20528;-51
2022/07/07 00:13:53;;;;;;;4.70;2.70;;;21.00;99.90;;;;;;5005910;28;20363;-52
2022/07/07 00:16:19;;;;;;;5.75;3.15;;;20.90;99.90;;;;;;5005720;28;20039;-52
2022/07/07 00:18:45;;;;;;;5.90;4.90;;;20.90;99.90;;;;;;5004052;28;20026;-51
2022/07/07 00:21:11;;;;;;;8.52;5.10;;;20.80;99.90;;;;;;5001318;28;20040;-51
2022/07/07 00:23:37;;;;;;;8.75;4.93;;;20.80;99.90;;;;;;5007339;28;20112;-51
2022/07/07 00:26:03;;;;;;;8.45;4.43;;;20.70;99.90;;;;;;5006830;28;20050;-51
2022/07/07 00:28:30;;;;;;;4.88;4.35;;;;;;;;;;5001922;28;21484;-51
2022/07/07 00:30:56;;;;;;;6.43;4.22;;;20.60;99.90;;;;;;5001874;28;20026;-50
2022/07/07 00:33:22;;;;;;;7.82;4.15;;;20.70;99.90;;;;;;4980522;28;20504;-51
2022/07/07 00:35:48;;;;;;;7.63;3.65;;;20.50;99.90;;;;;;5012288;28;20117;-51
2022/07/07 00:38:14;;;;;;;6.28;3.13;;;20.50;99.90;;;;;;5007781;28;20517;-51
2022/07/07 00:40:39;;;;;;;5.93;3.28;;;20.50;99.90;;;;;;5010300;28;20038;-51
2022/07/07 00:43:05;;;;;;;7.15;3.00;;;20.50;99.90;;;;;;5007477;28;20030;-51
2022/07/07 00:45:31;;;;;;;6.10;3.30;;;20.60;99.90;;;;;;5015913;28;20050;-51
2022/07/07 00:48:01;;;;;;;5.18;2.90;;;20.50;99.90;;;;;;5016662;28;20433;-51
2022/07/07 00:50:27;;;;;;;3.38;2.92;;;20.40;99.90;;;;;;5016542;28;20045;-53
2022/07/07 00:52:53;;;;;;;5.82;2.80;;;20.40;99.90;;;;;;4994834;28;20437;-51
2022/07/07 00:55:19;;;;;;;10.68;3.00;;;20.40;99.90;;;;;;4994536;28;20042;-51
2022/07/07 00:57:45;;;;;;;3.65;2.92;;;20.30;99.90;;;;;;4962281;28;20462;-51
2022/07/07 01:00:14;;;;;;;3.70;2.80;;;20.30;99.90;;;;;;4962128;28;20041;-52
2022/07/07 01:02:42;;;;;;;4.70;2.80;;;20.30;99.90;;;;;;4978273;28;20121;-51
2022/07/07 01:05:08;;;;;;;7.05;3.05;;;20.30;99.90;;;;;;4994713;28;20034;-51
2022/07/07 01:07:36;;;;;;;6.55;3.13;;;20.30;99.90;;;;;;4994537;28;20533;-52
2022/07/07 01:10:04;;;;;;;4.95;2.72;;;20.20;99.90;;;;;;4994569;28;20113;-51
2022/07/07 01:12:34;;;;;;;3.38;2.65;;;20.20;99.90;;;;;;4994529;28;20534;-51
2022/07/07 01:15:00;;;;;;;6.63;3.40;;;20.20;99.90;;;;;;4994405;28;20031;-51
2022/07/07 01:17:26;;;;;;;5.47;2.90;;;20.20;99.90;;;;;;4994438;28;20026;-51
2022/07/07 01:19:51;;;;;;;6.57;3.30;;;20.20;99.90;;;;;;4994383;28;20613;-51
2022/07/07 01:22:20;;;;;;;5.90;3.60;;;20.00;99.90;;;;;;4945653;28;20034;-52
2022/07/07 01:24:45;;;;;;;5.43;3.10;;;20.00;99.90;;;;;;5013078;28;20057;-52
2022/07/07 01:27:17;;;;;;;4.22;2.90;;;20.10;99.90;;;;;;5014062;28;20038;-52
2022/07/07 01:29:46;;;;;;;8.43;3.13;;;20.00;99.90;;;;;;5015815;28;20034;-52
2022/07/07 01:32:12;;;;;;;3.83;2.75;;;20.00;99.90;;;;;;5016038;28;20512;-51
2022/07/07 01:34:40;;;;;;;5.35;3.40;;;19.90;99.90;;;;;;5015940;28;20030;-52
2022/07/07 01:37:07;;;;;;;5.43;3.13;;;19.90;99.90;;;;;;5015683;28;20033;-52
2022/07/07 01:39:33;;;;;;;3.95;3.17;;;19.90;99.90;;;;;;5015818;28;20066;-51
2022/07/07 01:42:00;;;;;;;10.07;2.70;;;19.90;99.90;;;;;;5016066;28;20025;-51
2022/07/07 01:44:25;;;;;;;5.95;2.85;;;19.90;99.90;;;;;;5014852;28;20572;-52
2022/07/07 01:46:51;;;;;;;6.30;2.67;;;19.90;99.90;;;;;;4997409;28;20121;-53
2022/07/07 01:49:18;;;;;;;6.63;3.05;;;19.80;99.90;;;;;;5015673;28;20030;-53
2022/07/07 01:51:44;;;;;;;3.65;2.95;;;19.70;99.90;;;;;;5015653;28;20045;-51
2022/07/07 01:54:10;;;;;;;8.27;3.20;;;19.80;99.90;;;;;;5015383;28;20026;-52
2022/07/07 01:56:36;;;;;;;9.65;2.85;;;19.80;99.90;;;;;;5015145;28;20030;-51
2022/07/07 01:59:02;;;;;;;3.33;2.70;;;19.80;99.90;;;;;;5015570;28;20429;-51
2022/07/07 02:01:29;;;;;;;5.60;3.30;;;19.80;99.90;;;;;;5013848;28;20386;-53
2022/07/07 02:03:54;;;;;;;5.13;3.40;;;19.80;99.90;;;;;;5015195;28;20360;-52
2022/07/07 02:06:20;;;;;;;4.47;3.30;;;19.80;99.90;;;;;;5015247;28;20029;-52
2022/07/07 02:08:46;;;;;;;7.75;3.30;;;19.70;99.90;;;;;;5014994;28;20021;-53
2022/07/07 02:11:15;;;;;;;8.75;3.70;;;19.70;99.90;;;;;;5015124;28;20096;-51
2022/07/07 02:13:42;;;;;;;5.18;3.40;;;19.60;99.90;;;;;;4996596;28;20514;-50
2022/07/07 02:16:09;;;;;;;7.43;3.33;;;19.60;99.90;;;;;;5014952;28;20117;-54
2022/07/07 02:18:36;;;;;;;6.40;3.15;;;19.50;99.90;;;;;;5014820;28;20277;-53
2022/07/07 02:21:03;;;;;;;5.53;3.63;;;;;;;;;;5014900;28;20080;-53
2022/07/07 02:23:29;;;;;;;5.10;3.88;;;;;;;;;;5015166;28;20022;-53
2022/07/07 02:25:56;;;;;;;5.40;3.72;;;;;;;;;;5014607;28;20022;-53
2022/07/07 02:28:23;;;;;;;5.70;3.60;;;19.40;99.90;;;;;;5014905;28;20076;-52
2022/07/07 02:30:53;;;;;;;6.00;3.88;;;19.30;99.90;;;;;;5012671;28;20046;-52
2022/07/07 02:33:19;;;;;;;5.00;3.30;;;19.30;99.90;;;;;;4996431;28;20548;-53
2022/07/07 02:35:46;;;;;;;3.38;3.08;;;19.30;99.90;;;;;;5014395;28;20042;-52
2022/07/07 02:38:12;;;;;;;3.97;3.03;;;19.40;99.90;;;;;;5012443;28;20077;-52
2022/07/07 02:40:38;;;;;;;7.22;3.83;;;19.20;99.90;;;;;;5012311;28;20062;-53
2022/07/07 02:43:04;;;;;;;6.47;3.42;;;19.30;99.90;;;;;;5012436;28;20113;-50
2022/07/07 02:45:29;;;;;;;6.07;3.53;;;19.30;99.90;;;;;;4995624;28;20505;-52
2022/07/07 02:47:55;;;;;;;5.57;3.50;;;19.30;99.90;;;;;;5012248;28;20077;-52
2022/07/07 02:50:21;;;;;;;4.40;3.20;;;19.30;99.90;;;;;;5012268;28;20104;-52
2022/07/07 02:52:47;;;;;;;3.75;3.20;;;19.20;99.90;;;;;;5012121;28;20048;-52
2022/07/07 02:55:12;;;;;;;6.65;3.75;;;19.20;99.90;;;;;;5011887;28;20092;-52
2022/07/07 02:57:38;;;;;;;5.40;3.50;;;19.20;99.90;;;;;;5011694;28;20054;-52
2022/07/07 03:00:06;;;;;;;6.53;3.47;;;19.20;99.90;;;;;;4979421;28;20466;-52
2022/07/07 03:02:32;;;;;;;7.22;3.45;;;19.30;99.90;;;;;;4995829;28;20044;-52
2022/07/07 03:04:57;;;;;;;3.30;3.00;;;19.20;99.90;;;;;;4995415;28;20042;-52
2022/07/07 03:07:23;;;;;;;7.50;3.20;;;19.20;99.90;;;;;;5011988;28;20029;-52
2022/07/07 03:09:49;;;;;;;6.63;3.40;;;19.20;99.90;;;;;;5013398;28;20077;-52
2022/07/07 03:12:15;;;;;;;10.60;3.80;;;19.40;99.90;;;;;;5012147;28;20401;-52
2022/07/07 03:14:40;;;;;;;4.60;2.70;;;19.50;99.90;;;;;;4995669;28;20114;-52
2022/07/07 03:17:06;;;;;;;3.85;3.38;;;19.60;99.90;;;;;;5012046;28;20124;-53
2022/07/07 03:19:34;;;;;;;7.50;3.72;;;19.60;99.90;;;;;;5013790;28;20068;-53
2022/07/07 03:22:03;;;;;;;7.18;3.50;;;19.60;99.90;;;;;;5013980;28;20444;-52
2022/07/07 03:24:31;;;;;;;7.97;4.95;;;19.50;99.90;;;;;;5013916;28;20489;-50
2022/07/07 03:26:58;;;;;;;3.80;3.10;;;19.60;99.90;;;;;;5014192;28;20104;-50
2022/07/07 03:29:25;;;;;;;4.85;3.20;;;19.60;99.90;;;;;;5013740;28;20057;-51
2022/07/07 03:31:51;;;;;;;3.83;3.25;;;19.60;99.90;;;;;;5013695;28;20487;-50
2022/07/07 03:34:16;;;;;;;6.03;3.40;;;19.60;99.90;;;;;;5013694;28;20029;-51
2022/07/07 03:36:42;;;;;;;6.35;3.60;;;19.60;99.90;;;;;;5013572;28;20113;-50
2022/07/07 03:39:08;;;;;;;6.50;3.58;;;19.60;99.90;;;;;;5013586;28;20385;-51
2022/07/07 03:41:34;;;;;;;5.80;3.90;;;19.60;99.90;;;;;;5013628;28;20026;-50
2022/07/07 03:43:59;;;;;;;5.90;4.00;;;19.50;99.90;;;;;;5013231;28;20490;-50
2022/07/07 03:46:26;;;;;;;5.15;3.33;;;19.50;99.90;;;;;;5013671;28;20076;-53
2022/07/07 03:48:51;;;;;;;4.60;3.50;;;19.50;99.90;;;;;;5013514;28;20053;-53
2022/07/07 03:51:17;;;;;;;5.72;4.18;;;19.50;99.90;;;;;;5011575;28;20069;-51
2022/07/07 03:53:43;;;;;;;5.55;3.60;;;19.50;99.90;;;;;;5013544;28;20033;-52
2022/07/07 03:56:08;;;;;;;6.00;3.88;;;19.60;99.90;;;;;;5013223;28;20034;-52
2022/07/07 03:58:34;;;;;;;4.78;3.60;;;19.50;99.90;;;;;;5013419;28;20062;-53
2022/07/07 04:01:00;;;;;;;3.90;3.50;;;19.40;99.90;;;;;;5007736;28;20065;-52
2022/07/07 04:03:26;;;;;;;6.00;3.53;;;19.50;99.90;;;;;;5011513;28;20042;-52
2022/07/07 04:05:52;;;;;;;7.40;3.22;;;19.50;99.90;;;;;;5006185;28;20034;-50
2022/07/07 04:08:17;;;;;;;5.50;3.63;;;19.60;99.90;;;;;;5002311;28;20037;-50
2022/07/07 04:10:43;;;;;;;4.95;3.28;;;19.60;99.90;;;;;;5017399;28;20524;-51
2022/07/07 04:13:09;;;;;;;6.43;3.97;;;19.60;99.90;;;;;;5030352;28;20081;-51
2022/07/07 04:15:35;;;;;;;5.43;2.92;;;19.70;99.90;;;;;;5013136;28;20137;-49
2022/07/07 04:18:01;;;;;;;5.13;3.45;;;19.70;99.90;;;;;;4997629;28;20460;-51
2022/07/07 04:20:29;;;;;;;4.13;2.97;;;19.80;99.90;;;;;;4997551;28;20023;-51
2022/07/07 04:22:56;;;;;;;4.88;3.17;;;19.80;99.90;;;;;;4997474;28;20044;-51
2022/07/07 04:25:21;;;;;;;4.90;3.17;;;19.90;99.90;;;;;;4997593;28;20375;-51
2022/07/07 04:27:47;;;;;;;4.47;3.58;;;19.90;99.90;;;;;;4997388;28;20101;-52
2022/07/07 04:30:13;;;;;;;3.83;3.45;;;20.00;99.90;;;;;;4997284;28;20027;-50
2022/07/07 04:32:39;;;;;;;6.05;3.70;;;20.00;99.90;;;;;;5011896;28;20423;-51
2022/07/07 04:35:05;;;;;;;5.30;3.90;;;20.10;99.90;;;;;;4997615;28;20038;-51
2022/07/07 04:37:31;;;;;;;8.18;3.78;;;20.20;99.90;;;;;;4997277;28;20037;-51
2022/07/07 04:39:56;;;;;;;6.45;4.40;;;20.30;99.90;;;;;;4997182;28;20027;-50
2022/07/07 04:42:22;;;;;;;6.18;4.57;;;20.30;99.90;;;;;;4997122;28;20058;-50
2022/07/07 04:44:48;;;;;;;7.15;4.40;;;20.40;99.90;;;;;;5026291;28;20402;-51
2022/07/07 04:47:14;;;;;;;6.63;5.03;;;20.40;99.90;;;;;;4997188;28;20105;-51
2022/07/07 04:49:39;;;;;;;5.60;4.15;;;20.50;99.90;;;;;;4997072;28;20037;-51
2022/07/07 04:52:05;;;;;;;7.20;4.75;;;20.50;99.90;;;;;;4978951;28;20037;-51
2022/07/07 04:54:31;;;;;;;9.07;4.45;;;20.60;99.90;;;;;;4997005;28;20425;-51
2022/07/07 04:56:57;;;;;;;5.63;4.75;;;20.60;99.90;;;;;;4997010;28;20030;-51
2022/07/07 04:59:23;;;;;;;8.80;4.18;;;20.70;99.90;;;;;;4996901;28;20093;-51
2022/07/07 05:01:48;;;;;;;5.72;3.80;;;20.80;99.90;;;;;;4996940;28;20472;-50
2022/07/07 05:04:14;;;;;;;5.15;3.53;;;20.90;99.90;;;;;;4996862;28;20030;-52
2022/07/07 05:06:40;;;;;;;7.65;3.60;;;21.00;99.90;;;;;;4996975;28;20417;-51
2022/07/07 05:09:06;;;;;;;5.45;3.25;;;21.10;99.90;;;;;;4996614;28;20030;-51
2022/07/07 05:11:32;;;;;;;3.45;2.78;;;21.20;99.90;;;;;;4996460;28;20077;-50
2022/07/07 05:13:58;;;;;;;5.20;3.45;;;21.30;99.90;;;;;;4997036;28;20080;-51
2022/07/07 05:16:23;;;;;;;6.68;2.80;;;21.30;99.90;;;;;;4996434;28;20038;-51
2022/07/07 05:18:49;;;;;;;4.57;2.65;;;21.40;99.90;;;;;;4995619;28;20110;-52
2022/07/07 05:21:15;;;;;;;5.05;3.20;;;21.50;99.90;;;;;;4978456;28;20042;-50
2022/07/07 05:23:41;;;;;;;5.20;2.75;;;21.50;99.90;;;;;;4996679;28;20026;-51
2022/07/07 05:26:06;;;;;;;5.20;3.13;;;21.60;99.90;;;;;;4996344;28;20470;-51
2022/07/07 05:28:33;;;;;;;4.85;3.13;;;21.70;99.90;;;;;;4994400;28;20042;-51
2022/07/07 05:30:59;;;;;;;3.47;2.40;;;21.80;99.90;;;;;;4996181;28;20027;-51
2022/07/07 05:33:25;;;;;;;5.03;3.30;;;21.80;99.90;;;;;;4996106;28;20046;-51
2022/07/07 05:35:50;;;;;;;5.03;3.40;;;21.90;99.90;;;;;;4996425;28;20482;-51
2022/07/07 05:38:16;;;;;;;7.80;3.28;;;21.90;99.90;;;;;;5013734;28;20072;-51
2022/07/07 05:40:42;;;;;;;4.03;3.15;;;21.90;99.90;;;;;;5015591;28;20119;-51
2022/07/07 05:43:08;;;;;;;7.18;3.17;;;22.00;99.90;;;;;;5015557;28;20377;-51
2022/07/07 05:45:34;;;;;;;6.88;3.45;;;22.10;99.90;;;;;;5015296;28;20508;-51
2022/07/07 05:47:59;;;;;;;5.57;3.45;;;22.10;99.90;;;;;;5030213;28;20133;-51
2022/07/07 05:50:25;;;;;;;4.80;2.78;;;22.30;99.90;;;;;;5013594;28;20116;-51
2022/07/07 05:52:51;;;;;;;3.85;3.20;;;22.30;99.90;;;;;;5013553;28;20394;-51
2022/07/07 05:55:17;;;;;;;5.97;3.50;;;22.40;99.90;;;;;;5015422;28;20080;-51
2022/07/07 05:57:43;;;;;;;3.33;2.85;;;22.40;99.90;;;;;;5015264;28;20034;-51
2022/07/07 06:00:10;;;;;;;5.32;2.83;;;22.40;99.90;;;;;;5011739;28;20445;-51
2022/07/07 06:02:35;;;;;;;5.30;2.83;;;22.40;99.90;;;;;;5012898;28;20042;-50
2022/07/07 06:05:02;;;;;;;3.30;2.40;;;22.50;99.90;;;;;;4980709;28;20500;-51
2022/07/07 06:07:28;;;;;;;5.43;3.00;;;22.50;99.90;;;;;;5014901;28;20073;-52
2022/07/07 06:09:54;;;;;;;5.45;3.35;;;22.50;99.90;;;;;;4996944;28;20069;-51
2022/07/07 06:12:21;;;;;;;4.53;2.65;;;22.50;99.90;;;;;;4996934;28;20486;-51
2022/07/07 06:14:47;;;;;;;7.35;2.85;;;22.70;99.90;;;;;;5013774;28;20458;-51
2022/07/07 06:17:13;;;;;;;4.60;2.67;;;22.80;99.90;;;;;;5014024;28;20037;-51
2022/07/07 06:19:39;;;;;;;5.15;2.38;;;23.00;99.90;;;;;;5014701;28;20050;-51
2022/07/07 06:22:04;;;;;;;3.50;2.38;;;23.00;99.90;;;;;;4980289;28;20089;-51
2022/07/07 06:24:30;;;;;;;3.20;2.22;;;23.00;99.90;;;;;;5015020;28;20026;-50
2022/07/07 06:26:56;;;;;;;4.57;2.50;;;22.90;99.90;;;;;;5014705;28;20052;-51
2022/07/07 06:29:22;;;;;;;3.78;2.55;;;23.00;99.90;;;;;;4996667;28;20037;-50
2022/07/07 06:31:47;;;;;;;3.55;2.38;;;23.00;99.90;;;;;;4977437;28;20117;-50
2022/07/07 06:34:13;;;;;;;5.00;2.38;;;23.10;99.90;;;;;;5014534;28;20112;-51
2022/07/07 06:36:39;;;;;;;4.65;2.38;;;23.20;99.90;;;;;;5014505;28;20029;-51
2022/07/07 06:39:04;;;;;;;5.90;2.08;;;23.30;99.90;;;;;;5014602;28;20037;-52
2022/07/07 06:41:37;;;;;;;3.75;2.20;;;23.30;99.90;;;;;;5014609;28;20022;-51
2022/07/07 06:44:05;;;;;;;4.47;2.15;;;23.30;99.90;;;;;;5014623;28;20041;-52
2022/07/07 06:46:31;;;;;;;3.58;2.40;;;23.40;99.90;;;;;;4996481;28;20034;-52
2022/07/07 06:48:57;;;;;;;5.43;2.40;;;23.60;99.90;;;;;;5012481;28;20436;-51
2022/07/07 06:51:23;;;;;;;5.30;2.60;;;23.70;99.90;;;;;;5014833;28;20103;-52
2022/07/07 06:53:49;;;;;;;6.35;2.90;;;23.80;99.90;;;;;;4996065;28;20065;-50
2022/07/07 06:56:14;;;;;;;5.63;2.70;;;23.90;99.90;;;;;;5014217;28;20121;-51
2022/07/07 06:58:41;;;;;;;3.58;2.55;;;24.00;99.90;;;;;;5014295;28;20036;-51
2022/07/07 07:01:08;;;;;;;4.00;2.30;;;24.00;99.90;;;;;;4998930;28;20038;-51
2022/07/07 07:03:34;;;;;;;3.92;2.25;;;24.00;99.90;;;;;;4994425;28;20097;-51
2022/07/07 07:05:59;;;;;;;4.82;2.00;;;24.10;99.90;;;;;;4994420;28;20022;-52
2022/07/07 07:08:25;;;;;;;4.32;2.25;;;;;;;;;;4992763;28;20042;-51
2022/07/07 07:10:52;;;;;;;3.97;2.50;;;;;;;;;;4992790;28;20463;-51
2022/07/07 07:13:18;;;;;;;3.70;2.40;;;;;;;;;;4994454;28;20034;-51
2022/07/07 07:15:44;;;;;;;5.75;2.35;;;23.80;99.90;;;;;;4994218;28;20040;-52
2022/07/07 07:18:10;;;;;;;3.28;2.10;;;;;;;;;;4994483;28;20031;-52
2022/07/07 07:20:36;;;;;;;3.17;2.28;;;24.60;99.90;;;;;;4994351;28;20113;-51
2022/07/07 07:23:02;;;;;;;3.10;2.10;;;24.50;99.90;;;;;;5000884;28;20110;-51
2022/07/07 07:25:28;;;;;;;3.03;2.00;;;24.80;99.90;;;;;;4995854;28;20045;-51
2022/07/07 07:27:54;;;;;;;3.08;1.80;;;24.80;99.90;;;;;;5014082;28;20026;-52
2022/07/07 07:30:20;;;;;;;3.60;2.03;;;;;;;;;;4993796;28;20164;-52
2022/07/07 07:32:46;;;;;;;3.70;1.80;;;;;;;;;;5013107;28;20116;-52
2022/07/07 07:35:12;;;;;;;7.03;2.08;;;;;;;;;;5013010;28;20042;-51
2022/07/07 07:37:39;;;;;;;5.75;2.17;;;25.20;99.90;;;;;;5022178;28;20628;-52
2022/07/07 07:40:09;;;;;;;5.18;2.45;;;;;;;;;;5012448;28;20139;-51
2022/07/07 07:42:39;;;;;;;2.28;1.67;;;25.70;99.90;;;;;;4993778;28;20038;-52
2022/07/07 07:45:12;;;;;;;4.78;2.00;;;25.50;99.90;;;;;;5003036;28;20093;-51
2022/07/07 07:47:46;;;;;;;2.25;1.70;;;25.70;99.90;;;;;;4981646;28;20038;-51
2022/07/07 07:50:20;;;;;;;4.15;1.80;;;25.50;99.90;;;;;;5007659;28;20096;-52
2022/07/07 07:52:47;;;;;;;2.38;1.60;;;25.70;99.90;;;;;;5010119;28;20116;-51
2022/07/07 07:55:17;;;;;;;3.70;1.70;;;25.70;99.90;;;;;;5011582;28;20176;-51
2022/07/07 07:57:43;;;;;;;3.95;1.80;;;25.90;99.90;;;;;;4976680;28;20042;-52
2022/07/07 08:00:12;;;;;;;2.20;1.52;;;25.90;99.90;;;;;;5012348;28;20105;-51
2022/07/07 08:02:38;;;;;;;2.50;1.88;;;26.10;99.90;;;;;;4977524;28;20394;-52
2022/07/07 08:05:04;;;;;;;3.70;1.55;;;;;;;;;;5012541;28;20040;-52
2022/07/07 08:07:32;;;;;;;5.95;2.70;;;26.20;99.90;;;;;;5012357;28;20036;-52
2022/07/07 08:09:58;;;;;;;4.88;1.80;;;;;;;;;;5012281;28;20092;-51
2022/07/07 08:12:24;;;;;;;5.32;1.70;;;26.30;99.90;;;;;;5006876;28;20030;-51
2022/07/07 08:14:50;;;;;;;3.42;1.50;;;26.40;99.90;;;;;;4992686;28;20471;-51
2022/07/07 08:17:17;;;;;;;3.42;1.65;;;;;;;;;;5001748;28;20030;-51
2022/07/07 08:19:43;;;;;;;2.88;1.40;;;26.70;99.90;;;;;;5019910;28;20026;-51
2022/07/07 08:22:10;;;;;;;2.45;1.20;;;;;;;;;;5020900;28;20041;-51
2022/07/07 08:24:36;;;;;;;6.35;1.80;;;26.70;97.80;;;;;;5020842;28;20099;-51
2022/07/07 08:27:03;;;;;;;1.95;1.38;;;27.00;99.40;;;;;;5002605;28;20037;-52
2022/07/07 08:29:29;;;;;;;6.95;1.20;;;26.70;99.90;;;;;;4987012;28;20038;-51
2022/07/07 08:31:55;;;;;;;2.75;1.30;;;;;;;;;;5017348;28;20046;-52
2022/07/07 08:34:21;;;;;;;2.45;1.40;;;;;;;;;;5020865;28;20061;-51
2022/07/07 08:36:48;;;;;;;2.45;1.52;;;;;;;;;;5027162;28;20439;-51
2022/07/07 08:39:14;;;;;;;3.70;1.48;;;26.80;99.90;;;;;;5020900;28;20526;-51
2022/07/07 08:41:40;;;;;;;3.58;1.42;;;26.90;96.30;;;;;;5035264;28;20133;-51
2022/07/07 08:44:07;;;;;;;1.48;1.20;;;26.90;96.30;;;;;;5020559;28;20041;-52
2022/07/07 08:46:33;;;;;;;2.10;1.30;;;;;;;;;;5021173;28;20457;-51
2022/07/07 08:48:59;;;;;;;2.42;1.38;;;27.20;94.80;;;;;;5021457;28;20018;-51
2022/07/07 08:51:25;;;;;;;0.98;0.88;;;27.20;94.20;;;;;;5020038;28;20041;-52
2022/07/07 08:53:52;;;;;;;2.38;1.50;;;27.20;94.10;;;;;;5020753;28;20509;-52
2022/07/07 08:56:19;;;;;;;3.42;1.67;;;27.30;94.10;;;;;;5022221;28;20038;-52
2022/07/07 08:58:45;;;;;;;2.10;1.20;;;27.40;94.90;;;;;;5024516;28;20045;-51
2022/07/07 09:01:11;;;;;;;2.78;1.02;;;27.40;94.20;;;;;;5024058;28;20033;-51
2022/07/07 09:03:37;;;;;;;2.47;1.40;;;27.40;93.50;;;;;;5038603;28;20029;-51
2022/07/07 09:06:03;;;;;;;2.53;1.70;;;27.40;93.70;;;;;;5024658;28;20100;-51
2022/07/07 09:08:31;;;;;;;3.38;1.42;;;27.70;94.40;;;;;;5024406;28;20018;-51
2022/07/07 09:10:57;;;;;;;3.33;1.35;;;;;;;;;;5024680;28;20032;-52
2022/07/07 09:13:28;;;;;;;3.38;1.58;;;27.80;92.90;;;;;;5024596;28;20500;-52
2022/07/07 09:15:56;;;;;;;1.63;1.20;;;27.90;92.80;;;;;;5024566;28;20494;-52
2022/07/07 09:18:31;;;;;;;5.03;1.35;;;27.80;93.00;;;;;;5023660;28;20022;-52
2022/07/07 09:20:57;;;;;;;1.30;1.00;;;28.00;93.00;;;;;;5020706;28;20493;-51
2022/07/07 09:23:23;;;;;;;2.28;1.55;;;28.20;93.00;;;;;;5023636;28;20116;-51
2022/07/07 09:25:49;;;;;;;2.38;1.23;;;28.10;92.80;;;;;;5022932;28;20029;-52
2022/07/07 09:28:15;;;;;;;2.95;1.48;;;28.10;93.00;;;;;;5002735;28;20477;-52
2022/07/07 09:30:45;;;;;;;2.90;2.28;;;28.10;91.70;;;;;;5011270;28;20121;-52
2022/07/07 09:33:22;;;;;;;3.58;1.33;;;28.10;92.10;;;;;;5018253;28;20045;-52
2022/07/07 09:38:35;;;;;;;1.45;1.20;;;28.30;91.90;;;;;;5019493;28;20155;-52
2022/07/07 09:41:08;;;;;;;2.03;1.30;;;28.40;92.00;;;;;;5023342;28;20022;-52
2022/07/07 09:44:06;;;;;;;2.70;1.30;;;28.60;92.00;;;;;;5023858;28;20030;-51
2022/07/07 09:46:33;;;;;;;2.05;1.42;;;28.30;90.10;;;;;;4934030;29;20047;-51
2022/07/07 09:48:59;;;;;;;3.05;1.30;;;28.40;91.00;;;;;;4933809;29;20047;-51
2022/07/07 09:51:33;;;;;;;3.55;1.38;;;28.40;90.00;;;;;;4933915;29;20062;-52
2022/07/07 09:54:00;;;;;;;2.00;1.20;;;28.50;88.90;;;;;;4933921;29;20617;-51
2022/07/07 09:56:33;;;;;;;1.77;1.23;;;;;;;;;;4933529;29;20055;-52
2022/07/07 09:59:00;;;;;;;1.33;1.10;;;29.00;98.20;;;;;;4941232;29;20032;-53
2022/07/07 10:01:32;;;;;;;1.55;1.33;;;28.90;92.20;;;;;;4939168;29;20031;-52
2022/07/07 10:04:00;;;;;;;1.23;1.13;;;29.20;98.40;;;;;;4936742;29;20032;-51
2022/07/07 10:06:27;;;;;;;3.00;1.23;;;29.00;88.00;;;;;;4918286;29;20035;-52
2022/07/07 10:08:57;;;;;;;1.95;1.10;;;;;;;;;;4914240;29;20047;-52
2022/07/07 10:11:34;;;;;;;2.72;1.40;;;29.10;86.10;;;;;;4933945;29;20058;-52
2022/07/07 10:14:03;;;;;;;2.40;1.40;;;;;;;;;;4931490;29;20028;-51
2022/07/07 10:16:29;;;;;;;2.10;1.30;;;29.20;84.40;;;;;;4933305;29;20492;-52
2022/07/07 10:18:55;;;;;;;2.13;1.30;;;29.20;86.50;;;;;;4933368;29;20083;-51
2022/07/07 10:21:21;;;;;;;3.53;1.55;;;29.30;85.30;;;;;;4949582;28;20041;-52
2022/07/07 10:23:47;;;;;;;3.13;1.50;;;29.20;84.80;;;;;;5021849;28;20111;-52
2022/07/07 10:26:13;;;;;;;1.50;1.40;;;29.60;85.80;;;;;;5023858;28;20469;-52
2022/07/07 10:28:56;;;;;;;3.55;1.55;;;29.50;86.40;;;;;;5008864;28;20048;-51
2022/07/07 10:31:24;;;;;;;3.15;1.40;;;29.50;86.40;;;;;;5020298;28;20044;-51
2022/07/07 10:34:01;;;;;;;3.17;2.00;;;29.70;90.30;;;;;;5016583;28;20101;-51
2022/07/07 10:36:40;;;;;;;3.95;1.75;;;;;;;;;;5022350;28;20264;-51
2022/07/07 10:39:08;;;;;;;2.28;1.50;;;29.80;92.60;;;;;;5003519;28;20488;-51
2022/07/07 10:41:34;;;;;;;2.65;1.55;;;;;;;;;;5003805;28;20032;-51
2022/07/07 10:44:09;;;;;;;2.25;1.20;;;30.00;95.50;;;;;;5003877;28;20041;-50
2022/07/07 10:46:36;;;;;;;4.63;1.73;;;30.30;85.70;;;;;;5010408;28;20029;-50
2022/07/07 10:49:09;;;;;;;4.63;1.40;;;30.10;85.20;;;;;;5013565;28;20366;-50
2022/07/07 10:51:51;;;;;;;2.22;1.35;;;;;;;;;;5012127;28;20029;-50
2022/07/07 10:54:34;;;;;;;4.30;1.60;;;30.60;84.00;;;;;;5013319;28;20088;-49
2022/07/07 10:57:00;;;;;;;3.25;1.50;;;;;;;;;;5012395;28;20045;-50
2022/07/07 10:59:27;;;;;;;2.83;1.30;;;31.30;88.60;;;;;;5013122;28;20018;-50
2022/07/07 11:02:01;;;;;;;3.42;1.50;;;31.10;84.10;;;;;;5008970;28;20096;-50
2022/07/07 11:04:43;;;;;;;1.88;1.27;;;;;;;;;;5011502;28;20116;-50
2022/07/07 11:07:14;;;;;;;2.47;1.02;;;31.50;85.60;;;;;;5004559;28;20121;-50
2022/07/07 11:10:04;;;;;;;1.73;1.10;;;31.20;83.50;;;;;;5005377;28;20456;-50
2022/07/07 11:12:37;;;;;;;3.17;1.10;;;31.00;83.30;;;;;;4991638;28;20115;-50
2022/07/07 11:15:22;;;;;;;5.38;1.00;;;31.50;83.90;;;;;;5012716;28;20285;-52
2022/07/07 11:17:56;;;;;;;3.55;1.20;;;31.50;78.00;;;;;;5009901;28;20026;-50
2022/07/07 11:20:24;;;;;;;2.83;1.60;;;31.10;78.50;;;;;;5008468;28;20034;-49
2022/07/07 11:23:06;;;;;;;2.28;0.95;;;31.00;78.10;;;;;;4999269;28;20041;-50
2022/07/07 11:25:32;;;;;;;;;;;31.00;78.50;;;;;;5009217;28;20034;-51
2022/07/07 11:27:58;;;;;;;1.15;1.00;;;31.50;79.90;;;;;;5012600;28;19905;-50
2022/07/07 11:30:24;;;;;;;4.15;1.23;;;31.80;78.80;;;;;;5012744;28;20112;-50
2022/07/07 11:32:50;;;;;;;2.45;1.10;;;;;;;;;;4994346;28;20042;-50
2022/07/07 11:35:17;;;;;;;1.13;1.02;;;32.10;89.90;;;;;;5012640;28;20042;-50
2022/07/07 11:37:45;;;;;;;2.50;0.90;;;31.70;81.80;;;;;;5012651;28;20050;-51
2022/07/07 11:40:14;;;;;;;1.63;1.20;;;31.50;84.00;;;;;;5012610;28;20034;-51
2022/07/07 11:42:41;;;;;;;2.75;1.17;;;31.50;90.90;;;;;;5012699;28;20053;-50
2022/07/07 11:45:23;;;;;;;1.85;1.30;;;31.60;90.60;;;;;;5012201;28;20109;-50
2022/07/07 11:47:52;;;;;;;1.95;1.20;;;31.70;89.70;;;;;;5004517;28;20048;-51
2022/07/07 11:50:18;;;;;;;2.60;1.20;;;31.60;90.20;;;;;;4984356;28;20045;-50
2022/07/07 11:52:48;;;;;;;1.95;1.48;;;;;;;;;;5004467;28;20105;-50
2022/07/07 11:55:17;;;;;;;9.52;3.90;;;32.50;95.50;;;;;;4994004;28;20097;-50
2022/07/07 11:57:48;;;;;;;3.65;1.45;;;32.60;91.60;;;;;;5012942;28;20034;-51
2022/07/07 12:00:19;;;;;;;1.20;1.10;;;32.40;75.30;;;;;;5013820;28;20461;-50
2022/07/07 12:02:47;;;;;;;8.05;1.77;;;32.30;75.40;;;;;;5013627;28;20022;-50
2022/07/07 12:05:18;;;;;;;2.42;1.17;;;32.20;76.50;;;;;;5013554;28;20038;-50
2022/07/07 12:07:52;;;;;;;2.35;1.42;;;31.80;76.30;;;;;;5013582;28;20033;-50
2022/07/07 12:10:23;;;;;;;3.30;1.10;;;31.90;76.30;;;;;;5013562;28;20037;-51
2022/07/07 12:13:04;;;;;;;2.55;1.30;;;31.60;76.40;;;;;;5013313;28;20030;-51
2022/07/07 12:15:34;;;;;;;7.25;1.73;;;31.80;76.00;;;;;;5012382;28;20041;-50
2022/07/07 12:18:01;;;;;;;3.05;1.60;;;31.80;76.90;;;;;;5013371;28;20470;-50
2022/07/07 12:20:27;;;;;;;1.58;1.25;;;31.80;76.70;;;;;;5007288;28;20057;-50
2022/07/07 12:22:56;;;;;;;4.43;1.63;;;31.90;78.60;;;;;;5011555;28;20462;-51
2022/07/07 12:25:30;;;;;;;2.00;1.58;;;32.00;76.70;;;;;;5006307;28;20093;-50
2022/07/07 12:28:03;;;;;;;3.05;1.90;;;31.80;77.20;;;;;;4999107;28;20034;-51
2022/07/07 12:30:31;;;;;;;2.13;1.73;;;31.90;77.10;;;;;;5017165;28;20038;-50
2022/07/07 12:32:58;;;;;;;2.95;1.20;;;31.90;78.10;;;;;;5017294;28;20034;-50
2022/07/07 12:35:37;;;;;;;4.72;2.13;;;31.70;76.20;;;;;;5017008;28;20038;-50
2022/07/07 12:38:05;;;;;;;2.88;1.13;;;31.60;76.50;;;;;;5016782;28;20385;-50
2022/07/07 12:40:33;;;;;;;3.15;1.55;;;31.40;77.30;;;;;;5016825;28;20034;-51
2022/07/07 12:43:07;;;;;;;8.35;2.72;;;31.00;76.90;;;;;;5017133;28;20105;-50
2022/07/07 12:45:33;;;;;;;4.88;1.85;;;31.30;77.40;;;;;;5016648;28;20057;-50
2022/07/07 12:47:59;;;;;;;3.05;2.05;;;31.60;77.90;;;;;;5016597;28;20037;-50
2022/07/07 12:50:25;;;;;;;2.50;1.55;;;31.80;76.70;;;;;;5014450;28;20018;-50
2022/07/07 12:52:59;;;;;;;2.88;1.70;;;31.90;76.70;;;;;;5016528;28;20489;-50
2022/07/07 12:55:34;;;;;;;3.80;1.75;;;31.80;78.20;;;;;;5008776;28;20045;-50
2022/07/07 12:58:21;;;;;;;2.88;1.45;;;31.60;77.80;;;;;;4996954;28;20530;-50
2022/07/07 13:01:03;;;;;;;2.45;1.50;;;31.40;76.40;;;;;;4997012;28;20558;-51
2022/07/07 13:03:30;;;;;;;4.43;1.50;;;31.40;78.00;;;;;;5016616;28;20026;-50